Terrapin Island — KGDS — position and weather

sailwx.info

Track history (hours):
 
Tides and Currents Weather Stations Pressure Air Temp Water Temp Dewpoint Dewpoint Depression Visibility Wind Speed Wind Dir Waves Ship Positions

Terrapin Island

Owner: Great Lakes Dredge & Dock Company, LLC., Oak Brook, IL. More information available from US FCC via Universal Licensing System and Coast Guard Vessel Documentation Center.

Last reported at 2018-Jul-20 10:48 UTC. Time now 2018-Jul-22 04:43 UTC.
Position N 36°54' W 075°57'.

Length 106 m; draft 5.5 m.

Type: Dredging. MMSI: 366692000.

Date/timePositionNaut miles runAvg speedWind from/ knotsBaromVisibWave heightAir tempDewpointWater temp
2018-Jul-20 10:48N 36°54' W 075°57'310.6
2018-Jul-20 10:30N 36°57' W 075°59'3 5.8
2018-Jul-20 10:00N 36°59' W 076°00'  
2018-Jul-17 13:51N 36°55' W 075°57'1 0.2
2018-Jul-17 09:18N 36°56' W 075°58'4 3.7
2018-Jul-17 08:20N 36°59' W 076°00'1 0.0
2018-Jul-15 13:09N 36°59' W 076°01'0 1.9
2018-Jul-15 12:56N 36°60' W 076°01'6 2.0
2018-Jul-15 09:55N 36°55' W 075°57'6 3.4
2018-Jul-15 08:08N 36°60' W 076°01'5 2.6
2018-Jul-15 06:23N 36°56' W 075°58'410.5
2018-Jul-15 06:00N 36°53' W 075°55'1 1.2
2018-Jul-15 04:58N 36°53' W 075°56'4 9.0
2018-Jul-15 04:30N 36°56' W 075°59'3 5.2
2018-Jul-15 04:00N 36°59' W 076°00'0 0.1
2018-Jul-15 03:30N 36°59' W 076°00'0 0.5
2018-Jul-15 02:42N 36°59' W 076°00'0 1.6
2018-Jul-15 02:30N 36°59' W 076°00'1 1.8
2018-Jul-15 01:54N 36°60' W 076°01'1 1.1
2018-Jul-15 01:26N 37°00' W 076°02'9 0.7
2018-Jul-14 12:46N 36°53' W 075°55'310.7
2018-Jul-14 12:30N 36°55' W 075°57'510.7
2018-Jul-14 12:00N 36°60' W 076°01'1 1.4
2018-Jul-14 11:30N 37°00' W 076°02'1 1.3
2018-Jul-14 10:44N 36°59' W 076°01'11 3.7
2018-Jul-14 07:45N 36°50' W 075°53'1 4.6
2018-Jul-14 07:28N 36°51' W 075°54'711.4
2018-Jul-14 06:53N 36°57' W 075°59'2 0.1
2018-Jul-13 12:16N 36°59' W 076°00'7 0.8
2018-Jul-13 03:25N 36°53' W 075°55'7 4.0
2018-Jul-13 01:39N 36°59' W 076°00'0 1.1
2018-Jul-13 01:23N 36°59' W 076°00'0 1.3
2018-Jul-13 01:00N 36°59' W 076°01'6 0.2
2018-Jul-11 12:38N 36°54' W 075°56'1 9.9
2018-Jul-11 12:30N 36°55' W 075°57'4 8.7
2018-Jul-11 12:00N 36°59' W 076°00'0 0.0
2018-Jul-11 06:06N 36°59' W 075°60'0 2.9
2018-Jul-11 05:59N 36°59' W 076°00'0 0.3
2018-Jul-11 05:30N 36°59' W 076°00'0 0.5
2018-Jul-11 04:55N 36°59' W 076°00'10 0.6
2018-Jul-10 12:46N 36°50' W 075°53'  
Track history (hours):
 
Tides and Currents Weather Stations Pressure Air Temp Water Temp Dewpoint Dewpoint Depression Visibility Wind Speed Wind Dir Waves Ship Positions

Terrapin Island

Owner: Great Lakes Dredge & Dock Company, LLC., Oak Brook, IL. More information available from US FCC via Universal Licensing System and Coast Guard Vessel Documentation Center.

Last reported at 2018-Jul-20 10:48 UTC. Time now 2018-Jul-22 04:43 UTC.
Position N 36°54' W 075°57'.

Length 106 m; draft 5.5 m.

Type: Dredging. MMSI: 366692000.

Date/timePositionNaut miles runAvg speedWind from/ knotsBaromVisibWave heightAir tempDewpointWater temp
2018-Jul-20 10:48N 36°54' W 075°57'310.6
2018-Jul-20 10:30N 36°57' W 075°59'3 5.8
2018-Jul-20 10:00N 36°59' W 076°00'  
2018-Jul-17 13:51N 36°55' W 075°57'1 0.2
2018-Jul-17 09:18N 36°56' W 075°58'4 3.7
2018-Jul-17 08:20N 36°59' W 076°00'1 0.0
2018-Jul-15 13:09N 36°59' W 076°01'0 1.9
2018-Jul-15 12:56N 36°60' W 076°01'6 2.0
2018-Jul-15 09:55N 36°55' W 075°57'6 3.4
2018-Jul-15 08:08N 36°60' W 076°01'5 2.6
2018-Jul-15 06:23N 36°56' W 075°58'410.5
2018-Jul-15 06:00N 36°53' W 075°55'1 1.2
2018-Jul-15 04:58N 36°53' W 075°56'4 9.0
2018-Jul-15 04:30N 36°56' W 075°59'3 5.2
2018-Jul-15 04:00N 36°59' W 076°00'0 0.1
2018-Jul-15 03:30N 36°59' W 076°00'0 0.5
2018-Jul-15 02:42N 36°59' W 076°00'0 1.6
2018-Jul-15 02:30N 36°59' W 076°00'1 1.8
2018-Jul-15 01:54N 36°60' W 076°01'1 1.1
2018-Jul-15 01:26N 37°00' W 076°02'9 0.7
2018-Jul-14 12:46N 36°53' W 075°55'310.7
2018-Jul-14 12:30N 36°55' W 075°57'510.7
2018-Jul-14 12:00N 36°60' W 076°01'1 1.4
2018-Jul-14 11:30N 37°00' W 076°02'1 1.3
2018-Jul-14 10:44N 36°59' W 076°01'11 3.7
2018-Jul-14 07:45N 36°50' W 075°53'1 4.6
2018-Jul-14 07:28N 36°51' W 075°54'711.4
2018-Jul-14 06:53N 36°57' W 075°59'2 0.1
2018-Jul-13 12:16N 36°59' W 076°00'7 0.8
2018-Jul-13 03:25N 36°53' W 075°55'7 4.0
2018-Jul-13 01:39N 36°59' W 076°00'0 1.1
2018-Jul-13 01:23N 36°59' W 076°00'0 1.3
2018-Jul-13 01:00N 36°59' W 076°01'6 0.2
2018-Jul-11 12:38N 36°54' W 075°56'1 9.9
2018-Jul-11 12:30N 36°55' W 075°57'4 8.7
2018-Jul-11 12:00N 36°59' W 076°00'0 0.0
2018-Jul-11 06:06N 36°59' W 075°60'0 2.9
2018-Jul-11 05:59N 36°59' W 076°00'0 0.3
2018-Jul-11 05:30N 36°59' W 076°00'0 0.5
2018-Jul-11 04:55N 36°59' W 076°00'10 0.6
2018-Jul-10 12:46N 36°50' W 075°53'  

Dump ship's entire track history